createdAt,value
2019-03-20T00:00:57.161Z,2.30
2019-03-20T00:03:27.614Z,2.40
2019-03-20T00:05:58.996Z,2.30
2019-03-20T00:08:30.486Z,2.30
2019-03-20T00:11:00.783Z,2.40
2019-03-20T00:13:31.135Z,2.30
2019-03-20T00:16:01.420Z,2.30
2019-03-20T00:18:31.757Z,2.30
2019-03-20T00:21:02.101Z,2.30
2019-03-20T00:23:32.455Z,2.30
2019-03-20T00:26:03.732Z,2.30
2019-03-20T00:28:34.000Z,2.30
2019-03-20T00:31:04.306Z,2.20
2019-03-20T00:33:34.579Z,2.20
2019-03-20T00:36:05.040Z,2.20
2019-03-20T00:38:35.317Z,2.20
2019-03-20T00:41:05.700Z,2.20
2019-03-20T00:43:35.960Z,2.10
2019-03-20T00:46:06.238Z,2.10
2019-03-20T00:48:36.448Z,2.10
2019-03-20T00:51:06.804Z,2.00
2019-03-20T00:53:37.071Z,2.00
2019-03-20T00:56:07.428Z,2.00
2019-03-20T00:58:39.676Z,2.00
2019-03-20T01:01:09.691Z,2.00
2019-03-20T01:03:40.005Z,2.00
2019-03-20T01:06:10.320Z,2.00
2019-03-20T01:08:41.704Z,2.00
2019-03-20T01:11:12.363Z,2.00
2019-03-20T01:13:42.642Z,2.00
2019-03-20T01:16:12.854Z,1.90
2019-03-20T01:18:43.235Z,1.90
2019-03-20T01:21:13.571Z,1.90
2019-03-20T01:23:43.855Z,1.90
2019-03-20T01:26:14.177Z,1.90
2019-03-20T01:28:50.336Z,1.90
2019-03-20T01:31:20.640Z,1.90
2019-03-20T01:33:50.876Z,1.80
2019-03-20T01:36:21.181Z,1.90
2019-03-20T01:38:51.455Z,1.90
2019-03-20T01:41:21.779Z,1.80
2019-03-20T01:43:52.056Z,1.90
2019-03-20T01:46:22.323Z,1.90
2019-03-20T01:48:53.660Z,1.80
2019-03-20T01:51:23.998Z,1.90
2019-03-20T01:53:54.201Z,1.90
2019-03-20T01:56:24.498Z,1.90
2019-03-20T01:58:54.782Z,1.80
2019-03-20T02:01:25.143Z,1.80
2019-03-20T02:03:55.356Z,1.80
2019-03-20T02:06:25.794Z,1.80
2019-03-20T02:08:56.118Z,1.80
2019-03-20T02:11:26.420Z,1.80
2019-03-20T02:13:56.734Z,1.80
2019-03-20T02:16:28.128Z,1.90
2019-03-20T02:18:58.468Z,1.90
2019-03-20T02:21:28.759Z,1.90
2019-03-20T02:24:00.067Z,1.90
2019-03-20T02:26:30.384Z,1.90
2019-03-20T02:29:00.718Z,2.00
2019-03-20T02:31:31.009Z,2.00
2019-03-20T02:34:01.348Z,1.90
2019-03-20T02:36:31.607Z,2.00
2019-03-20T02:39:02.021Z,2.00
2019-03-20T02:41:33.802Z,2.00
2019-03-20T02:44:04.144Z,2.00
2019-03-20T02:46:34.380Z,2.00
2019-03-20T02:49:04.801Z,2.00
2019-03-20T02:51:35.110Z,2.00
2019-03-20T02:54:05.433Z,2.00
2019-03-20T02:56:35.732Z,2.00
2019-03-20T02:59:07.142Z,2.00
2019-03-20T03:01:37.511Z,2.00
2019-03-20T03:04:09.009Z,2.00
2019-03-20T03:06:39.243Z,2.00
2019-03-20T03:09:09.543Z,1.90
2019-03-20T03:11:39.842Z,1.90
2019-03-20T03:14:10.152Z,1.90
2019-03-20T03:16:40.427Z,1.90
2019-03-20T03:19:10.756Z,1.90
2019-03-20T03:21:41.008Z,1.90
2019-03-20T03:24:11.277Z,1.90
2019-03-20T03:26:41.599Z,1.90
2019-03-20T03:29:11.793Z,1.80
2019-03-20T03:31:42.130Z,1.80
2019-03-20T03:34:12.420Z,1.80
2019-03-20T03:36:42.707Z,1.80
2019-03-20T03:39:13.004Z,1.80
2019-03-20T03:41:43.293Z,1.70
2019-03-20T03:44:13.586Z,1.70
2019-03-20T03:46:43.883Z,1.70
2019-03-20T03:49:14.089Z,1.70
2019-03-20T03:51:45.400Z,1.60
2019-03-20T03:54:15.666Z,1.60
2019-03-20T03:56:46.378Z,1.60
2019-03-20T03:59:17.640Z,1.60
2019-03-20T04:01:47.998Z,1.60
2019-03-20T04:04:18.283Z,1.60
2019-03-20T04:06:48.582Z,1.50
2019-03-20T04:09:18.857Z,1.50
2019-03-20T04:11:49.177Z,1.50
2019-03-20T04:14:19.456Z,1.50
2019-03-20T04:16:50.761Z,1.50
2019-03-20T04:19:21.038Z,1.50
2019-03-20T04:21:51.432Z,1.40
2019-03-20T04:24:21.645Z,1.40
2019-03-20T04:26:52.047Z,1.40
2019-03-20T04:29:22.337Z,1.40
2019-03-20T04:31:52.848Z,1.40
2019-03-20T04:34:23.102Z,1.40
2019-03-20T04:36:53.451Z,1.40
2019-03-20T04:39:23.724Z,1.40
2019-03-20T04:41:54.067Z,1.40
2019-03-20T04:44:24.337Z,1.40
2019-03-20T04:46:54.759Z,1.40
2019-03-20T04:49:25.049Z,1.40
2019-03-20T04:51:55.468Z,1.30
2019-03-20T04:54:25.729Z,1.30
2019-03-20T04:56:56.140Z,1.30
2019-03-20T04:59:26.401Z,1.30
2019-03-20T05:01:57.018Z,1.30
2019-03-20T05:04:27.287Z,1.30
2019-03-20T05:06:59.069Z,1.30
2019-03-20T05:09:29.467Z,1.30
2019-03-20T05:11:59.860Z,1.30
2019-03-20T05:14:30.273Z,1.30
2019-03-20T05:17:00.601Z,1.30
2019-03-20T05:19:30.873Z,1.30
2019-03-20T05:22:01.176Z,1.30
2019-03-20T05:24:34.080Z,1.20
2019-03-20T05:27:04.532Z,1.30
2019-03-20T05:29:34.836Z,1.30
2019-03-20T05:32:05.170Z,1.30
2019-03-20T05:34:35.430Z,1.40
2019-03-20T05:37:10.180Z,1.40
2019-03-20T05:39:37.696Z,1.40
2019-03-20T05:42:08.035Z,1.40
2019-03-20T05:44:38.995Z,1.50
2019-03-20T05:47:10.386Z,1.50
2019-03-20T05:49:40.765Z,1.50
2019-03-20T05:52:11.229Z,1.60
2019-03-20T05:54:41.573Z,1.60
2019-03-20T05:57:12.693Z,1.70
2019-03-20T05:59:43.105Z,1.70
2019-03-20T06:02:17.322Z,1.80
2019-03-20T06:04:47.552Z,1.80
2019-03-20T06:07:21.824Z,1.90
2019-03-20T06:09:49.737Z,2.00
2019-03-20T06:12:19.991Z,2.00
2019-03-20T06:14:50.328Z,2.10
2019-03-20T06:17:20.603Z,2.10
2019-03-20T06:19:51.062Z,2.20
2019-03-20T06:22:22.622Z,2.20
2019-03-20T06:24:53.076Z,2.30
2019-03-20T06:27:26.585Z,2.40
2019-03-20T06:29:57.208Z,2.50
2019-03-20T06:32:27.319Z,2.60
2019-03-20T06:34:57.674Z,2.70
2019-03-20T06:37:32.620Z,2.80
2019-03-20T06:39:59.908Z,2.90
2019-03-20T06:42:30.125Z,3.00
2019-03-20T06:45:00.497Z,3.10
2019-03-20T06:47:30.759Z,3.20
2019-03-20T06:50:01.019Z,3.40
2019-03-20T06:52:31.283Z,3.50
2019-03-20T06:55:01.633Z,3.60
2019-03-20T06:57:33.003Z,3.60
2019-03-20T07:00:39.446Z,3.70
2019-03-20T07:03:37.950Z,3.80
2019-03-20T07:06:13.939Z,3.90
2019-03-20T07:08:53.130Z,3.90
2019-03-20T07:11:22.238Z,4.00
2019-03-20T07:13:52.427Z,4.10
2019-03-20T07:16:22.660Z,4.10
2019-03-20T07:18:52.944Z,4.20
2019-03-20T07:21:23.252Z,4.20
2019-03-20T07:23:53.553Z,4.30
2019-03-20T07:26:23.863Z,4.40
2019-03-20T07:28:54.132Z,4.50
2019-03-20T07:31:24.429Z,4.60
2019-03-20T07:33:54.736Z,4.60
2019-03-20T07:36:25.052Z,4.70
2019-03-20T07:38:55.329Z,4.80
2019-03-20T07:41:28.143Z,4.80
2019-03-20T07:43:58.274Z,4.90
2019-03-20T07:46:28.622Z,4.90
2019-03-20T07:48:58.969Z,4.90
2019-03-20T07:51:29.295Z,5.00
2019-03-20T07:54:00.561Z,5.00
2019-03-20T07:56:30.905Z,5.10
2019-03-20T07:59:01.175Z,5.10
2019-03-20T08:01:31.513Z,5.30
2019-03-20T08:04:01.712Z,5.30
2019-03-20T08:06:32.023Z,5.40
2019-03-20T08:09:02.283Z,5.40
2019-03-20T08:11:32.613Z,5.50
2019-03-20T08:14:03.545Z,5.50
2019-03-20T08:16:34.235Z,5.60
2019-03-20T08:19:04.607Z,5.60
2019-03-20T08:21:34.868Z,5.70
2019-03-20T08:24:05.047Z,5.80
2019-03-20T08:26:35.464Z,5.90
2019-03-20T08:29:05.751Z,5.90
2019-03-20T08:31:36.112Z,6.00
2019-03-20T08:34:06.414Z,6.00
2019-03-20T08:36:36.855Z,6.10
2019-03-20T08:39:08.081Z,6.20
2019-03-20T08:41:38.495Z,6.30
2019-03-20T08:44:08.758Z,6.30
2019-03-20T08:46:39.027Z,6.40
2019-03-20T08:49:09.294Z,6.40
2019-03-20T08:51:40.292Z,6.50
2019-03-20T08:54:10.442Z,6.50
2019-03-20T08:56:40.763Z,6.60
2019-03-20T08:59:10.953Z,6.60
2019-03-20T09:01:41.293Z,6.70
2019-03-20T09:04:11.572Z,6.80
2019-03-20T09:06:41.822Z,6.90
2019-03-20T09:09:12.017Z,6.90
2019-03-20T09:11:42.364Z,6.90
2019-03-20T09:14:12.558Z,7.00
2019-03-20T09:16:43.935Z,7.10
2019-03-20T09:19:14.182Z,7.10
2019-03-20T09:21:44.467Z,7.20
2019-03-20T09:24:14.724Z,7.40
2019-03-20T09:26:45.026Z,7.50
2019-03-20T09:29:18.739Z,7.50
2019-03-20T09:31:47.205Z,7.70
2019-03-20T09:34:17.585Z,7.70
2019-03-20T09:36:47.809Z,7.70
2019-03-20T09:39:18.003Z,7.70
2019-03-20T09:41:48.329Z,7.80
2019-03-20T09:44:18.559Z,7.90
2019-03-20T09:46:48.863Z,8.00
2019-03-20T09:49:19.063Z,8.10
2019-03-20T09:51:49.381Z,8.10
2019-03-20T09:54:19.633Z,8.10
2019-03-20T09:56:50.933Z,8.10
2019-03-20T09:59:21.144Z,8.00
2019-03-20T10:01:51.373Z,8.10
2019-03-20T10:04:21.629Z,8.10
2019-03-20T10:06:52.859Z,8.10
2019-03-20T10:09:23.063Z,8.10
2019-03-20T10:11:53.407Z,8.10
2019-03-20T10:14:23.669Z,8.30
2019-03-20T10:16:53.915Z,8.40
2019-03-20T10:19:24.217Z,8.50
2019-03-20T10:21:54.397Z,8.60
2019-03-20T10:24:24.688Z,8.70
2019-03-20T10:26:55.968Z,8.80
2019-03-20T10:29:26.273Z,8.80
2019-03-20T10:31:56.448Z,8.90
2019-03-20T10:34:26.819Z,8.90
2019-03-20T10:36:56.970Z,9.00
2019-03-20T10:39:27.263Z,9.20
2019-03-20T10:41:57.529Z,9.30
2019-03-20T10:44:27.819Z,9.40
2019-03-20T10:46:58.083Z,9.30
2019-03-20T10:49:28.307Z,9.40
2019-03-20T10:51:58.567Z,9.40
2019-03-20T10:54:28.791Z,9.50
2019-03-20T10:56:58.969Z,9.60
2019-03-20T10:59:29.256Z,9.60
2019-03-20T11:02:00.915Z,9.70
2019-03-20T11:04:32.604Z,9.80
2019-03-20T11:07:02.871Z,9.70
2019-03-20T11:09:33.266Z,9.60
2019-03-20T11:12:04.521Z,9.60
2019-03-20T11:14:34.834Z,9.70
2019-03-20T11:17:05.107Z,9.70
2019-03-20T11:19:35.326Z,9.70
2019-03-20T11:22:05.860Z,9.70
2019-03-20T11:24:37.128Z,9.60
2019-03-20T11:27:07.899Z,9.50
2019-03-20T11:29:38.294Z,9.40
2019-03-20T11:32:08.621Z,9.30
2019-03-20T11:34:38.978Z,9.30
2019-03-20T11:37:09.315Z,9.30
2019-03-20T11:39:39.555Z,9.30
2019-03-20T11:42:09.816Z,9.30
2019-03-20T11:44:40.686Z,9.40
2019-03-20T11:47:10.883Z,9.40
2019-03-20T11:49:41.146Z,9.40
2019-03-20T11:52:11.334Z,9.30
2019-03-20T11:54:41.624Z,9.30
2019-03-20T11:57:11.817Z,9.40
2019-03-20T11:59:42.153Z,9.60
2019-03-20T12:02:12.335Z,9.60
2019-03-20T12:04:42.681Z,9.70
2019-03-20T12:07:12.949Z,9.70
2019-03-20T12:09:46.089Z,9.90
2019-03-20T12:12:16.242Z,10.00
2019-03-20T12:14:48.367Z,10.10
2019-03-20T12:17:20.254Z,10.20
2019-03-20T12:19:50.708Z,10.30
2019-03-20T12:22:21.170Z,10.40
2019-03-20T12:24:51.492Z,10.40
2019-03-20T12:27:21.757Z,10.50
2019-03-20T12:29:52.094Z,10.50
2019-03-20T12:32:22.346Z,10.50
2019-03-20T12:34:53.410Z,10.60
2019-03-20T12:37:23.685Z,10.60
2019-03-20T12:39:54.012Z,10.70
2019-03-20T12:42:24.222Z,10.70
2019-03-20T12:44:54.588Z,10.70
2019-03-20T12:47:24.836Z,10.70
2019-03-20T12:49:55.305Z,10.70
2019-03-20T12:52:25.464Z,10.60
2019-03-20T12:54:56.368Z,10.60
2019-03-20T12:57:26.588Z,10.70
2019-03-20T12:59:56.965Z,10.80
2019-03-20T13:02:27.189Z,10.80
2019-03-20T13:04:57.538Z,10.80
2019-03-20T13:07:28.285Z,10.70
2019-03-20T13:10:03.245Z,10.70
2019-03-20T13:12:30.459Z,10.70
2019-03-20T13:15:01.736Z,10.60
2019-03-20T13:17:31.959Z,10.50
2019-03-20T13:20:02.189Z,10.50
2019-03-20T13:22:32.538Z,10.50
2019-03-20T13:25:02.836Z,10.60
2019-03-20T13:27:33.966Z,10.60
2019-03-20T13:30:06.711Z,10.70
2019-03-20T13:32:37.046Z,10.70
2019-03-20T13:35:09.211Z,10.70
2019-03-20T13:37:39.510Z,10.70
2019-03-20T13:40:14.730Z,10.70
2019-03-20T13:42:43.809Z,10.70
2019-03-20T13:45:22.626Z,10.60
2019-03-20T13:47:53.144Z,10.70
2019-03-20T13:50:23.336Z,10.70
2019-03-20T13:52:53.676Z,10.70
2019-03-20T13:55:23.868Z,10.70
2019-03-20T13:57:54.210Z,10.70
2019-03-20T14:00:27.819Z,10.50
2019-03-20T14:02:58.116Z,10.50
2019-03-20T14:05:28.690Z,10.50
2019-03-20T14:07:59.088Z,10.50
2019-03-20T14:10:32.532Z,10.60
2019-03-20T14:13:02.871Z,10.60
2019-03-20T14:15:33.111Z,10.60
2019-03-20T14:18:03.942Z,10.60
2019-03-20T14:20:34.247Z,10.60
2019-03-20T14:23:04.525Z,10.60
2019-03-20T14:25:34.781Z,10.60
2019-03-20T14:28:05.103Z,10.60
2019-03-20T14:30:35.377Z,10.50
2019-03-20T14:33:05.672Z,10.60
2019-03-20T14:35:35.927Z,10.50
2019-03-20T14:38:06.233Z,10.60
2019-03-20T14:40:37.028Z,10.70
2019-03-20T14:43:07.492Z,10.70
2019-03-20T14:45:37.795Z,10.60
2019-03-20T14:48:08.125Z,10.60
2019-03-20T14:50:39.094Z,10.60
2019-03-20T14:53:09.352Z,10.70
2019-03-20T14:55:39.609Z,10.70
2019-03-20T14:58:10.061Z,10.70
2019-03-20T15:00:41.316Z,10.70
2019-03-20T15:03:11.627Z,10.70
2019-03-20T15:05:42.197Z,10.60
2019-03-20T15:08:12.420Z,10.60
2019-03-20T15:10:46.193Z,10.70
2019-03-20T15:13:14.588Z,10.70
2019-03-20T15:15:53.659Z,10.70
2019-03-20T15:18:23.916Z,10.60
2019-03-20T15:20:54.150Z,10.60
2019-03-20T15:23:24.435Z,10.60
2019-03-20T15:25:54.697Z,10.70
2019-03-20T15:28:24.948Z,10.70
2019-03-20T15:30:55.139Z,10.60
2019-03-20T15:33:25.449Z,10.60
2019-03-20T15:35:55.638Z,10.60
2019-03-20T15:38:25.961Z,10.60
2019-03-20T15:40:56.552Z,10.50
2019-03-20T15:43:27.937Z,10.60
2019-03-20T15:45:58.200Z,10.60
2019-03-20T15:48:28.507Z,10.70
2019-03-20T15:50:58.719Z,10.60
2019-03-20T15:53:29.025Z,10.60
2019-03-20T15:55:59.468Z,10.60
2019-03-20T15:58:29.803Z,10.60
2019-03-20T16:01:00.070Z,10.60
2019-03-20T16:03:44.897Z,10.60
2019-03-20T16:06:15.164Z,10.60
2019-03-20T16:08:45.537Z,10.50
2019-03-20T16:11:15.788Z,10.50
2019-03-20T16:13:46.184Z,10.50
2019-03-20T16:16:16.443Z,10.50
2019-03-20T16:18:46.628Z,10.50
2019-03-20T16:21:16.924Z,10.50
2019-03-20T16:24:06.420Z,10.40
2019-03-20T16:26:36.731Z,10.40
2019-03-20T16:29:07.050Z,10.40
2019-03-20T16:31:37.299Z,10.40
2019-03-20T16:34:07.596Z,10.40
2019-03-20T16:36:37.860Z,10.40
2019-03-20T16:39:09.030Z,10.40
2019-03-20T16:41:39.315Z,10.40
2019-03-20T16:44:09.580Z,10.40
2019-03-20T16:46:39.841Z,10.50
2019-03-20T16:49:10.189Z,10.50
2019-03-20T16:51:40.408Z,10.50
2019-03-20T16:54:11.341Z,10.50
2019-03-20T16:56:41.626Z,10.60
2019-03-20T16:59:12.597Z,10.50
2019-03-20T17:01:43.091Z,10.50
2019-03-20T17:04:13.675Z,10.40
2019-03-20T17:06:43.966Z,10.30
2019-03-20T17:09:15.121Z,10.10
2019-03-20T17:11:45.419Z,10.10
2019-03-20T17:14:15.711Z,9.90
2019-03-20T17:16:46.026Z,9.80
2019-03-20T17:19:29.983Z,9.70
2019-03-20T17:21:59.439Z,9.60
2019-03-20T17:24:29.567Z,9.50
2019-03-20T17:26:59.973Z,9.40
2019-03-20T17:29:30.313Z,9.30
2019-03-20T17:32:00.619Z,9.30
2019-03-20T17:34:30.834Z,9.20
2019-03-20T17:37:01.070Z,9.10
2019-03-20T17:39:31.345Z,9.00
2019-03-20T17:42:01.835Z,9.00
2019-03-20T17:44:32.026Z,8.90
2019-03-20T17:47:02.324Z,8.80
2019-03-20T17:49:32.516Z,8.80
2019-03-20T17:52:02.817Z,8.70
2019-03-20T17:54:33.080Z,8.60
2019-03-20T17:57:04.098Z,8.50
2019-03-20T17:59:34.401Z,8.50
2019-03-20T18:02:04.718Z,8.40
2019-03-20T18:04:34.990Z,8.40
2019-03-20T18:07:05.296Z,8.30
2019-03-20T18:09:36.440Z,8.30
2019-03-20T18:12:06.696Z,8.30
2019-03-20T18:14:43.612Z,8.20
2019-03-20T18:17:13.969Z,8.20
2019-03-20T18:19:44.241Z,8.20
2019-03-20T18:22:14.509Z,8.10
2019-03-20T18:24:45.861Z,8.10
2019-03-20T18:27:16.189Z,8.10
2019-03-20T18:29:46.461Z,8.00
2019-03-20T18:32:16.763Z,8.00
2019-03-20T18:34:47.060Z,7.90
2019-03-20T18:37:17.372Z,7.90
2019-03-20T18:39:47.666Z,7.80
2019-03-20T18:42:17.956Z,7.80
2019-03-20T18:44:48.219Z,7.70
2019-03-20T18:47:18.562Z,7.60
2019-03-20T18:49:49.716Z,7.60
2019-03-20T18:52:20.018Z,7.60
2019-03-20T18:54:50.278Z,7.60
2019-03-20T18:57:20.544Z,7.60
2019-03-20T18:59:50.811Z,7.50
2019-03-20T19:02:21.116Z,7.50
2019-03-20T19:04:51.386Z,7.50
2019-03-20T19:07:21.684Z,7.50
2019-03-20T19:09:51.969Z,7.50
2019-03-20T19:12:22.176Z,7.40
2019-03-20T19:14:53.316Z,7.40
2019-03-20T19:17:23.859Z,7.30
2019-03-20T19:19:54.111Z,7.30
2019-03-20T19:22:24.445Z,7.20
2019-03-20T19:24:54.670Z,7.20
2019-03-20T19:27:24.957Z,7.20
2019-03-20T19:29:55.228Z,7.10
2019-03-20T19:32:25.463Z,7.10
2019-03-20T19:34:55.657Z,6.60
2019-03-20T19:37:25.954Z,7.00
2019-03-20T19:39:56.228Z,7.00
2019-03-20T19:42:26.534Z,6.90
2019-03-20T19:44:56.810Z,6.90
2019-03-20T19:47:27.190Z,6.80
2019-03-20T19:49:57.471Z,6.80
2019-03-20T19:52:27.826Z,6.80
2019-03-20T19:54:58.094Z,6.80
2019-03-20T19:57:28.434Z,6.80
2019-03-20T19:59:58.632Z,6.70
2019-03-20T20:02:28.966Z,6.70
2019-03-20T20:04:59.232Z,6.70
2019-03-20T20:07:29.500Z,6.70
2019-03-20T20:09:59.703Z,6.60
2019-03-20T20:12:31.494Z,6.60
2019-03-20T20:15:01.981Z,6.60
2019-03-20T20:17:33.632Z,6.50
2019-03-20T20:20:05.465Z,6.50
2019-03-20T20:22:35.821Z,6.50
2019-03-20T20:25:07.383Z,6.40
2019-03-20T20:27:38.555Z,6.40
2019-03-20T20:30:11.792Z,6.40
2019-03-20T20:32:42.184Z,6.40
2019-03-20T20:35:13.873Z,6.30
2019-03-20T20:37:45.422Z,6.30
2019-03-20T20:40:17.967Z,6.30
2019-03-20T20:42:48.243Z,6.30
2019-03-20T20:45:18.530Z,6.20
2019-03-20T20:47:49.168Z,6.20
2019-03-20T20:50:19.843Z,6.20
2019-03-20T20:52:51.207Z,6.20
2019-03-20T20:55:24.925Z,6.20
2019-03-20T20:57:54.370Z,6.20
2019-03-20T21:00:27.848Z,6.10
2019-03-20T21:02:57.284Z,6.10
2019-03-20T21:05:27.506Z,6.10
2019-03-20T21:07:57.785Z,6.10
2019-03-20T21:10:28.240Z,6.10
2019-03-20T21:13:00.420Z,6.10
2019-03-20T21:15:36.152Z,6.10
2019-03-20T21:18:15.264Z,6.10
2019-03-20T21:20:48.733Z,6.00
2019-03-20T21:23:38.790Z,6.00
2019-03-20T21:26:14.858Z,6.00
2019-03-20T21:29:11.846Z,6.00
2019-03-20T21:31:45.166Z,6.00
2019-03-20T21:34:27.555Z,6.00
2019-03-20T21:37:35.947Z,6.00
2019-03-20T21:40:09.914Z,6.00
2019-03-20T21:43:07.024Z,6.00
2019-03-20T21:45:39.403Z,5.90
2019-03-20T21:48:09.749Z,6.00
2019-03-20T21:51:02.882Z,5.90
2019-03-20T21:54:08.093Z,5.90
2019-03-20T21:57:00.666Z,6.00
2019-03-20T21:59:53.600Z,6.00
2019-03-20T22:02:41.444Z,6.00
2019-03-20T22:05:22.777Z,5.90
2019-03-20T22:07:46.623Z,6.00
2019-03-20T22:10:28.947Z,6.00
2019-03-20T22:13:05.121Z,5.90
2019-03-20T22:15:54.950Z,5.90
2019-03-20T22:18:46.718Z,5.90
2019-03-20T22:21:39.143Z,5.90
2019-03-20T22:24:46.945Z,5.90
2019-03-20T22:27:25.977Z,5.90
2019-03-20T22:29:56.262Z,5.90
2019-03-20T22:32:32.335Z,5.90
2019-03-20T22:35:23.656Z,5.90
2019-03-20T22:37:55.122Z,5.90
2019-03-20T22:40:44.561Z,5.90
2019-03-20T22:43:38.382Z,6.00
2019-03-20T22:46:42.406Z,6.00
2019-03-20T22:49:33.393Z,6.00
2019-03-20T22:52:21.457Z,6.00
2019-03-20T22:55:26.348Z,6.00
2019-03-20T22:58:11.588Z,6.00
2019-03-20T23:00:42.727Z,6.00
2019-03-20T23:03:28.217Z,6.00
2019-03-20T23:05:58.487Z,6.00
2019-03-20T23:08:28.682Z,5.90
2019-03-20T23:10:59.383Z,5.90
2019-03-20T23:13:40.808Z,5.90
2019-03-20T23:16:08.458Z,6.00
2019-03-20T23:18:38.734Z,5.90
2019-03-20T23:21:09.046Z,6.00
2019-03-20T23:23:39.534Z,6.00
2019-03-20T23:26:09.732Z,6.00
2019-03-20T23:28:40.864Z,6.00
2019-03-20T23:31:11.135Z,6.00
2019-03-20T23:33:41.434Z,6.00
2019-03-20T23:36:11.697Z,6.00
2019-03-20T23:38:41.986Z,6.00
2019-03-20T23:41:12.184Z,6.00
2019-03-20T23:43:52.352Z,6.00
2019-03-20T23:46:14.378Z,6.00
2019-03-20T23:48:53.570Z,5.90
2019-03-20T23:51:26.350Z,5.90
2019-03-20T23:53:57.074Z,5.90
2019-03-20T23:56:29.975Z,5.90
2019-03-20T23:59:00.267Z,6.80
